sensor_id;sensor_type;location;lat;lon;timestamp;P1;durP1;ratioP1;P2;durP2;ratioP2
63653;SDS011;49809;47.418;19.080;2022-08-20T00:01:20;5.55;;;4.18;;
63653;SDS011;49809;47.418;19.080;2022-08-20T00:04:26;6.12;;;4.07;;
63653;SDS011;49809;47.418;19.080;2022-08-20T00:07:31;7.28;;;3.95;;
63653;SDS011;49809;47.418;19.080;2022-08-20T00:10:39;6.95;;;4.07;;
63653;SDS011;49809;47.418;19.080;2022-08-20T00:13:50;7.45;;;3.90;;
63653;SDS011;49809;47.418;19.080;2022-08-20T00:16:55;9.13;;;4.37;;
63653;SDS011;49809;47.418;19.080;2022-08-20T00:20:01;6.18;;;3.85;;
63653;SDS011;49809;47.418;19.080;2022-08-20T00:23:12;5.80;;;4.00;;
63653;SDS011;49809;47.418;19.080;2022-08-20T00:26:16;5.85;;;3.90;;
63653;SDS011;49809;47.418;19.080;2022-08-20T00:29:22;7.62;;;4.03;;
63653;SDS011;49809;47.418;19.080;2022-08-20T00:32:24;10.82;;;4.85;;
63653;SDS011;49809;47.418;19.080;2022-08-20T00:35:29;9.40;;;4.57;;
63653;SDS011;49809;47.418;19.080;2022-08-20T00:38:34;6.32;;;4.30;;
63653;SDS011;49809;47.418;19.080;2022-08-20T00:41:39;7.95;;;3.92;;
63653;SDS011;49809;47.418;19.080;2022-08-20T00:44:43;5.62;;;3.95;;
63653;SDS011;49809;47.418;19.080;2022-08-20T00:47:53;7.68;;;4.60;;
63653;SDS011;49809;47.418;19.080;2022-08-20T00:51:11;5.97;;;4.12;;
63653;SDS011;49809;47.418;19.080;2022-08-20T00:55:06;7.30;;;4.20;;
63653;SDS011;49809;47.418;19.080;2022-08-20T00:58:00;6.40;;;4.00;;
63653;SDS011;49809;47.418;19.080;2022-08-20T01:01:10;6.70;;;3.60;;
63653;SDS011;49809;47.418;19.080;2022-08-20T01:04:13;11.07;;;3.70;;
63653;SDS011;49809;47.418;19.080;2022-08-20T01:07:17;6.95;;;3.87;;
63653;SDS011;49809;47.418;19.080;2022-08-20T01:10:24;8.05;;;4.20;;
63653;SDS011;49809;47.418;19.080;2022-08-20T01:13:32;9.70;;;4.03;;
63653;SDS011;49809;47.418;19.080;2022-08-20T01:16:38;6.32;;;3.28;;
63653;SDS011;49809;47.418;19.080;2022-08-20T01:19:44;7.68;;;3.90;;
63653;SDS011;49809;47.418;19.080;2022-08-20T01:26:51;7.65;;;3.80;;
63653;SDS011;49809;47.418;19.080;2022-08-20T01:29:58;6.15;;;3.72;;
63653;SDS011;49809;47.418;19.080;2022-08-20T01:33:14;7.57;;;3.92;;
63653;SDS011;49809;47.418;19.080;2022-08-20T01:36:23;7.90;;;4.35;;
63653;SDS011;49809;47.418;19.080;2022-08-20T01:42:58;5.15;;;3.47;;
63653;SDS011;49809;47.418;19.080;2022-08-20T01:46:01;5.75;;;3.60;;
63653;SDS011;49809;47.418;19.080;2022-08-20T01:49:10;8.60;;;3.45;;
63653;SDS011;49809;47.418;19.080;2022-08-20T01:52:32;7.78;;;3.42;;
63653;SDS011;49809;47.418;19.080;2022-08-20T01:55:42;5.50;;;2.92;;
63653;SDS011;49809;47.418;19.080;2022-08-20T01:58:55;5.62;;;3.35;;
63653;SDS011;49809;47.418;19.080;2022-08-20T02:05:07;15.13;;;3.57;;
63653;SDS011;49809;47.418;19.080;2022-08-20T02:08:14;5.45;;;3.40;;
63653;SDS011;49809;47.418;19.080;2022-08-20T02:11:17;6.78;;;3.58;;
63653;SDS011;49809;47.418;19.080;2022-08-20T02:14:20;8.07;;;3.50;;
63653;SDS011;49809;47.418;19.080;2022-08-20T02:17:25;5.65;;;3.53;;
63653;SDS011;49809;47.418;19.080;2022-08-20T02:20:28;6.82;;;3.90;;
63653;SDS011;49809;47.418;19.080;2022-08-20T02:23:38;7.95;;;3.50;;
63653;SDS011;49809;47.418;19.080;2022-08-20T02:26:41;5.87;;;3.80;;
63653;SDS011;49809;47.418;19.080;2022-08-20T02:29:45;8.35;;;3.75;;
63653;SDS011;49809;47.418;19.080;2022-08-20T02:32:51;6.05;;;3.50;;
63653;SDS011;49809;47.418;19.080;2022-08-20T02:35:58;8.73;;;3.90;;
63653;SDS011;49809;47.418;19.080;2022-08-20T02:39:01;7.87;;;3.67;;
63653;SDS011;49809;47.418;19.080;2022-08-20T02:42:09;8.77;;;3.45;;
63653;SDS011;49809;47.418;19.080;2022-08-20T02:45:14;8.15;;;3.70;;
63653;SDS011;49809;47.418;19.080;2022-08-20T02:48:21;5.82;;;2.92;;
63653;SDS011;49809;47.418;19.080;2022-08-20T02:51:24;7.18;;;3.58;;
63653;SDS011;49809;47.418;19.080;2022-08-20T02:54:32;5.32;;;3.15;;
63653;SDS011;49809;47.418;19.080;2022-08-20T02:57:35;4.87;;;3.15;;
63653;SDS011;49809;47.418;19.080;2022-08-20T03:00:39;6.15;;;3.55;;
63653;SDS011;49809;47.418;19.080;2022-08-20T03:03:46;8.80;;;3.70;;
63653;SDS011;49809;47.418;19.080;2022-08-20T03:06:58;8.63;;;3.58;;
63653;SDS011;49809;47.418;19.080;2022-08-20T03:10:02;6.20;;;3.90;;
63653;SDS011;49809;47.418;19.080;2022-08-20T03:13:06;8.38;;;3.37;;
63653;SDS011;49809;47.418;19.080;2022-08-20T03:16:13;6.12;;;3.40;;
63653;SDS011;49809;47.418;19.080;2022-08-20T03:19:16;4.93;;;3.78;;
63653;SDS011;49809;47.418;19.080;2022-08-20T03:22:19;7.10;;;3.40;;
63653;SDS011;49809;47.418;19.080;2022-08-20T03:25:27;8.07;;;3.60;;
63653;SDS011;49809;47.418;19.080;2022-08-20T03:28:33;4.50;;;3.42;;
63653;SDS011;49809;47.418;19.080;2022-08-20T03:31:39;6.50;;;3.72;;
63653;SDS011;49809;47.418;19.080;2022-08-20T03:34:45;6.57;;;3.80;;
63653;SDS011;49809;47.418;19.080;2022-08-20T03:40:55;7.68;;;3.92;;
63653;SDS011;49809;47.418;19.080;2022-08-20T03:44:01;4.20;;;2.92;;
63653;SDS011;49809;47.418;19.080;2022-08-20T03:47:26;8.25;;;3.83;;
63653;SDS011;49809;47.418;19.080;2022-08-20T03:53:54;5.97;;;2.85;;
63653;SDS011;49809;47.418;19.080;2022-08-20T03:56:59;5.78;;;3.45;;
63653;SDS011;49809;47.418;19.080;2022-08-20T04:00:06;4.95;;;3.42;;
63653;SDS011;49809;47.418;19.080;2022-08-20T04:03:14;6.18;;;3.50;;
63653;SDS011;49809;47.418;19.080;2022-08-20T04:06:18;4.32;;;3.10;;
63653;SDS011;49809;47.418;19.080;2022-08-20T04:09:21;6.70;;;3.58;;
63653;SDS011;49809;47.418;19.080;2022-08-20T04:12:24;5.95;;;3.37;;
63653;SDS011;49809;47.418;19.080;2022-08-20T04:15:28;5.93;;;3.25;;
63653;SDS011;49809;47.418;19.080;2022-08-20T04:18:33;4.50;;;3.47;;
63653;SDS011;49809;47.418;19.080;2022-08-20T04:21:37;8.45;;;3.60;;
63653;SDS011;49809;47.418;19.080;2022-08-20T04:24:44;6.40;;;3.40;;
63653;SDS011;49809;47.418;19.080;2022-08-20T04:28:09;4.62;;;3.25;;
63653;SDS011;49809;47.418;19.080;2022-08-20T04:31:17;6.05;;;3.80;;
63653;SDS011;49809;47.418;19.080;2022-08-20T04:34:46;7.57;;;3.30;;
63653;SDS011;49809;47.418;19.080;2022-08-20T04:38:11;6.43;;;3.17;;
63653;SDS011;49809;47.418;19.080;2022-08-20T04:41:36;4.40;;;3.28;;
63653;SDS011;49809;47.418;19.080;2022-08-20T04:47:47;5.10;;;3.05;;
63653;SDS011;49809;47.418;19.080;2022-08-20T04:50:55;4.07;;;3.10;;
63653;SDS011;49809;47.418;19.080;2022-08-20T04:54:07;6.12;;;3.08;;
63653;SDS011;49809;47.418;19.080;2022-08-20T04:57:10;5.07;;;3.15;;
63653;SDS011;49809;47.418;19.080;2022-08-20T05:00:15;4.95;;;2.95;;
63653;SDS011;49809;47.418;19.080;2022-08-20T05:03:21;7.53;;;2.50;;
63653;SDS011;49809;47.418;19.080;2022-08-20T05:06:27;4.32;;;2.53;;
63653;SDS011;49809;47.418;19.080;2022-08-20T05:09:35;4.20;;;2.70;;
63653;SDS011;49809;47.418;19.080;2022-08-20T05:13:05;5.78;;;3.00;;
63653;SDS011;49809;47.418;19.080;2022-08-20T05:16:18;4.07;;;2.80;;
63653;SDS011;49809;47.418;19.080;2022-08-20T05:19:24;4.62;;;2.85;;
63653;SDS011;49809;47.418;19.080;2022-08-20T05:22:29;6.43;;;2.87;;
63653;SDS011;49809;47.418;19.080;2022-08-20T05:25:35;6.80;;;2.70;;
63653;SDS011;49809;47.418;19.080;2022-08-20T05:29:01;7.75;;;2.72;;
63653;SDS011;49809;47.418;19.080;2022-08-20T05:32:07;5.60;;;2.83;;
63653;SDS011;49809;47.418;19.080;2022-08-20T05:35:12;5.43;;;2.60;;
63653;SDS011;49809;47.418;19.080;2022-08-20T05:38:35;4.68;;;3.30;;
63653;SDS011;49809;47.418;19.080;2022-08-20T05:41:41;5.80;;;2.83;;
63653;SDS011;49809;47.418;19.080;2022-08-20T05:45:04;5.12;;;3.20;;
63653;SDS011;49809;47.418;19.080;2022-08-20T05:48:18;5.37;;;3.12;;
63653;SDS011;49809;47.418;19.080;2022-08-20T05:51:45;6.97;;;2.80;;
63653;SDS011;49809;47.418;19.080;2022-08-20T05:54:51;6.68;;;3.37;;
63653;SDS011;49809;47.418;19.080;2022-08-20T05:58:26;8.70;;;3.00;;
63653;SDS011;49809;47.418;19.080;2022-08-20T06:05:35;6.00;;;2.80;;
63653;SDS011;49809;47.418;19.080;2022-08-20T06:08:42;6.85;;;3.12;;
63653;SDS011;49809;47.418;19.080;2022-08-20T06:11:46;5.40;;;3.30;;
63653;SDS011;49809;47.418;19.080;2022-08-20T06:14:51;6.07;;;2.85;;
63653;SDS011;49809;47.418;19.080;2022-08-20T06:18:15;8.15;;;2.83;;
63653;SDS011;49809;47.418;19.080;2022-08-20T06:22:01;3.10;;;2.33;;
63653;SDS011;49809;47.418;19.080;2022-08-20T06:25:45;5.68;;;2.92;;
63653;SDS011;49809;47.418;19.080;2022-08-20T06:29:11;5.62;;;2.28;;
63653;SDS011;49809;47.418;19.080;2022-08-20T06:32:15;3.33;;;2.22;;
63653;SDS011;49809;47.418;19.080;2022-08-20T06:35:20;3.90;;;2.30;;
63653;SDS011;49809;47.418;19.080;2022-08-20T06:38:23;4.60;;;2.08;;
63653;SDS011;49809;47.418;19.080;2022-08-20T06:41:26;3.00;;;2.30;;
63653;SDS011;49809;47.418;19.080;2022-08-20T06:44:38;6.28;;;2.65;;
63653;SDS011;49809;47.418;19.080;2022-08-20T06:47:43;5.12;;;2.67;;
63653;SDS011;49809;47.418;19.080;2022-08-20T06:50:52;4.32;;;2.50;;
63653;SDS011;49809;47.418;19.080;2022-08-20T06:53:56;4.00;;;2.53;;
63653;SDS011;49809;47.418;19.080;2022-08-20T06:57:02;4.35;;;2.75;;
63653;SDS011;49809;47.418;19.080;2022-08-20T07:00:07;6.18;;;2.75;;
63653;SDS011;49809;47.418;19.080;2022-08-20T07:03:20;5.12;;;2.55;;
63653;SDS011;49809;47.418;19.080;2022-08-20T07:06:23;2.85;;;2.33;;
63653;SDS011;49809;47.418;19.080;2022-08-20T07:09:28;5.00;;;3.08;;
63653;SDS011;49809;47.418;19.080;2022-08-20T07:12:56;6.07;;;3.00;;
63653;SDS011;49809;47.418;19.080;2022-08-20T07:16:06;6.25;;;3.00;;
63653;SDS011;49809;47.418;19.080;2022-08-20T07:19:31;9.50;;;3.05;;
63653;SDS011;49809;47.418;19.080;2022-08-20T07:23:15;4.65;;;2.80;;
63653;SDS011;49809;47.418;19.080;2022-08-20T07:26:40;7.10;;;3.28;;
63653;SDS011;49809;47.418;19.080;2022-08-20T07:30:04;5.72;;;3.25;;
63653;SDS011;49809;47.418;19.080;2022-08-20T07:33:49;6.45;;;2.72;;
63653;SDS011;49809;47.418;19.080;2022-08-20T07:37:36;8.02;;;2.80;;
63653;SDS011;49809;47.418;19.080;2022-08-20T07:41:22;4.82;;;2.30;;
63653;SDS011;49809;47.418;19.080;2022-08-20T07:44:33;5.62;;;2.72;;
63653;SDS011;49809;47.418;19.080;2022-08-20T07:48:14;8.90;;;3.10;;
63653;SDS011;49809;47.418;19.080;2022-08-20T07:51:58;10.48;;;3.53;;
63653;SDS011;49809;47.418;19.080;2022-08-20T07:59:02;9.98;;;3.70;;
63653;SDS011;49809;47.418;19.080;2022-08-20T08:02:52;5.87;;;3.50;;
63653;SDS011;49809;47.418;19.080;2022-08-20T08:06:20;4.50;;;3.00;;
63653;SDS011;49809;47.418;19.080;2022-08-20T08:09:34;6.12;;;2.90;;
63653;SDS011;49809;47.418;19.080;2022-08-20T08:12:58;6.25;;;3.30;;
63653;SDS011;49809;47.418;19.080;2022-08-20T08:16:07;7.78;;;3.62;;
63653;SDS011;49809;47.418;19.080;2022-08-20T08:19:14;7.70;;;3.60;;
63653;SDS011;49809;47.418;19.080;2022-08-20T08:22:20;7.20;;;3.20;;
63653;SDS011;49809;47.418;19.080;2022-08-20T08:25:27;8.20;;;3.92;;
63653;SDS011;49809;47.418;19.080;2022-08-20T08:28:52;5.05;;;3.22;;
63653;SDS011;49809;47.418;19.080;2022-08-20T08:32:56;8.73;;;3.75;;
63653;SDS011;49809;47.418;19.080;2022-08-20T08:36:56;8.35;;;3.97;;
63653;SDS011;49809;47.418;19.080;2022-08-20T08:40:24;9.43;;;3.85;;
63653;SDS011;49809;47.418;19.080;2022-08-20T08:43:50;6.82;;;4.07;;
63653;SDS011;49809;47.418;19.080;2022-08-20T08:47:44;8.35;;;3.40;;
63653;SDS011;49809;47.418;19.080;2022-08-20T08:51:38;5.95;;;3.17;;
63653;SDS011;49809;47.418;19.080;2022-08-20T08:55:26;5.93;;;2.97;;
63653;SDS011;49809;47.418;19.080;2022-08-20T08:59:10;9.80;;;2.78;;
63653;SDS011;49809;47.418;19.080;2022-08-20T09:03:18;5.40;;;2.53;;
63653;SDS011;49809;47.418;19.080;2022-08-20T09:07:07;6.97;;;2.83;;
63653;SDS011;49809;47.418;19.080;2022-08-20T09:11:16;6.62;;;2.75;;
63653;SDS011;49809;47.418;19.080;2022-08-20T09:14:44;4.82;;;2.67;;
63653;SDS011;49809;47.418;19.080;2022-08-20T09:18:17;6.40;;;2.42;;
63653;SDS011;49809;47.418;19.080;2022-08-20T09:22:08;3.55;;;2.25;;
63653;SDS011;49809;47.418;19.080;2022-08-20T09:25:53;4.72;;;2.37;;
63653;SDS011;49809;47.418;19.080;2022-08-20T09:29:36;6.97;;;3.37;;
63653;SDS011;49809;47.418;19.080;2022-08-20T09:33:04;5.03;;;2.97;;
63653;SDS011;49809;47.418;19.080;2022-08-20T09:36:47;7.40;;;2.97;;
63653;SDS011;49809;47.418;19.080;2022-08-20T09:40:12;7.25;;;3.10;;
63653;SDS011;49809;47.418;19.080;2022-08-20T09:43:43;5.93;;;2.75;;
63653;SDS011;49809;47.418;19.080;2022-08-20T09:47:49;5.20;;;2.60;;
63653;SDS011;49809;47.418;19.080;2022-08-20T09:50:56;3.92;;;2.60;;
63653;SDS011;49809;47.418;19.080;2022-08-20T09:55:03;6.25;;;2.83;;
63653;SDS011;49809;47.418;19.080;2022-08-20T09:58:18;9.05;;;3.00;;
63653;SDS011;49809;47.418;19.080;2022-08-20T10:02:28;7.00;;;2.65;;
63653;SDS011;49809;47.418;19.080;2022-08-20T10:06:12;3.28;;;2.30;;
63653;SDS011;49809;47.418;19.080;2022-08-20T10:09:19;3.28;;;2.35;;
63653;SDS011;49809;47.418;19.080;2022-08-20T10:13:19;5.93;;;3.00;;
63653;SDS011;49809;47.418;19.080;2022-08-20T10:16:42;6.07;;;3.10;;
63653;SDS011;49809;47.418;19.080;2022-08-20T10:19:45;5.55;;;2.78;;
63653;SDS011;49809;47.418;19.080;2022-08-20T10:22:51;5.70;;;2.70;;
63653;SDS011;49809;47.418;19.080;2022-08-20T10:25:55;5.70;;;2.67;;
63653;SDS011;49809;47.418;19.080;2022-08-20T10:28:58;5.72;;;2.25;;
63653;SDS011;49809;47.418;19.080;2022-08-20T10:32:11;2.72;;;2.17;;
63653;SDS011;49809;47.418;19.080;2022-08-20T10:35:18;3.97;;;2.47;;
63653;SDS011;49809;47.418;19.080;2022-08-20T10:38:22;8.65;;;3.12;;
63653;SDS011;49809;47.418;19.080;2022-08-20T10:41:27;7.05;;;2.90;;
63653;SDS011;49809;47.418;19.080;2022-08-20T10:44:52;5.65;;;2.45;;
63653;SDS011;49809;47.418;19.080;2022-08-20T10:47:59;3.75;;;2.20;;
63653;SDS011;49809;47.418;19.080;2022-08-20T10:51:03;5.03;;;2.50;;
63653;SDS011;49809;47.418;19.080;2022-08-20T10:54:06;7.03;;;2.37;;
63653;SDS011;49809;47.418;19.080;2022-08-20T10:57:15;5.05;;;2.30;;
63653;SDS011;49809;47.418;19.080;2022-08-20T11:00:25;5.53;;;2.50;;
63653;SDS011;49809;47.418;19.080;2022-08-20T11:03:34;6.10;;;2.55;;
63653;SDS011;49809;47.418;19.080;2022-08-20T11:06:38;6.05;;;2.50;;
63653;SDS011;49809;47.418;19.080;2022-08-20T11:09:41;3.53;;;2.10;;
63653;SDS011;49809;47.418;19.080;2022-08-20T11:12:44;6.32;;;2.17;;
63653;SDS011;49809;47.418;19.080;2022-08-20T11:15:50;4.05;;;2.17;;
63653;SDS011;49809;47.418;19.080;2022-08-20T11:18:54;3.17;;;1.80;;
63653;SDS011;49809;47.418;19.080;2022-08-20T11:21:57;4.30;;;2.12;;
63653;SDS011;49809;47.418;19.080;2022-08-20T11:25:00;2.78;;;1.73;;
63653;SDS011;49809;47.418;19.080;2022-08-20T11:28:04;6.28;;;2.20;;
63653;SDS011;49809;47.418;19.080;2022-08-20T11:31:11;3.92;;;2.10;;
63653;SDS011;49809;47.418;19.080;2022-08-20T11:34:17;4.30;;;2.20;;
63653;SDS011;49809;47.418;19.080;2022-08-20T11:37:24;6.28;;;1.85;;
63653;SDS011;49809;47.418;19.080;2022-08-20T11:40:30;5.30;;;1.80;;
63653;SDS011;49809;47.418;19.080;2022-08-20T11:43:53;4.15;;;2.00;;
63653;SDS011;49809;47.418;19.080;2022-08-20T11:47:21;4.10;;;2.15;;
63653;SDS011;49809;47.418;19.080;2022-08-20T11:50:30;4.28;;;1.98;;
63653;SDS011;49809;47.418;19.080;2022-08-20T11:53:57;5.50;;;2.35;;
63653;SDS011;49809;47.418;19.080;2022-08-20T11:57:09;5.05;;;2.70;;
63653;SDS011;49809;47.418;19.080;2022-08-20T12:00:20;5.47;;;2.62;;
63653;SDS011;49809;47.418;19.080;2022-08-20T12:03:40;4.95;;;2.60;;
63653;SDS011;49809;47.418;19.080;2022-08-20T12:06:46;5.07;;;2.60;;
63653;SDS011;49809;47.418;19.080;2022-08-20T12:09:50;5.12;;;2.58;;
63653;SDS011;49809;47.418;19.080;2022-08-20T12:13:19;3.20;;;2.37;;
63653;SDS011;49809;47.418;19.080;2022-08-20T12:16:47;4.22;;;2.55;;
63653;SDS011;49809;47.418;19.080;2022-08-20T12:20:07;4.78;;;2.40;;
63653;SDS011;49809;47.418;19.080;2022-08-20T12:23:15;5.50;;;2.42;;
63653;SDS011;49809;47.418;19.080;2022-08-20T12:26:23;5.32;;;2.30;;
63653;SDS011;49809;47.418;19.080;2022-08-20T12:29:49;3.85;;;2.35;;
63653;SDS011;49809;47.418;19.080;2022-08-20T12:32:55;3.47;;;2.40;;
63653;SDS011;49809;47.418;19.080;2022-08-20T12:36:00;4.30;;;2.45;;
63653;SDS011;49809;47.418;19.080;2022-08-20T12:39:46;3.70;;;2.10;;
63653;SDS011;49809;47.418;19.080;2022-08-20T12:43:34;5.43;;;2.17;;
63653;SDS011;49809;47.418;19.080;2022-08-20T12:47:24;4.75;;;2.50;;
63653;SDS011;49809;47.418;19.080;2022-08-20T12:50:51;3.28;;;2.33;;
63653;SDS011;49809;47.418;19.080;2022-08-20T12:54:17;6.07;;;2.40;;
63653;SDS011;49809;47.418;19.080;2022-08-20T12:57:32;3.65;;;2.30;;
63653;SDS011;49809;47.418;19.080;2022-08-20T13:01:00;3.97;;;2.30;;
63653;SDS011;49809;47.418;19.080;2022-08-20T13:05:09;3.65;;;2.22;;
63653;SDS011;49809;47.418;19.080;2022-08-20T13:08:16;3.10;;;2.20;;
63653;SDS011;49809;47.418;19.080;2022-08-20T13:11:45;3.25;;;2.20;;
63653;SDS011;49809;47.418;19.080;2022-08-20T13:15:16;4.68;;;2.47;;
63653;SDS011;49809;47.418;19.080;2022-08-20T13:18:50;3.95;;;2.58;;
63653;SDS011;49809;47.418;19.080;2022-08-20T13:22:33;3.15;;;2.08;;
63653;SDS011;49809;47.418;19.080;2022-08-20T13:25:38;3.50;;;2.33;;
63653;SDS011;49809;47.418;19.080;2022-08-20T13:28:41;8.77;;;3.22;;
63653;SDS011;49809;47.418;19.080;2022-08-20T13:32:06;4.65;;;2.42;;
63653;SDS011;49809;47.418;19.080;2022-08-20T13:35:53;6.55;;;2.60;;
63653;SDS011;49809;47.418;19.080;2022-08-20T13:39:17;8.90;;;2.72;;
63653;SDS011;49809;47.418;19.080;2022-08-20T13:42:57;5.47;;;2.22;;
63653;SDS011;49809;47.418;19.080;2022-08-20T13:46:45;4.10;;;2.50;;
63653;SDS011;49809;47.418;19.080;2022-08-20T13:49:58;3.78;;;2.40;;
63653;SDS011;49809;47.418;19.080;2022-08-20T13:53:28;4.12;;;2.55;;
63653;SDS011;49809;47.418;19.080;2022-08-20T13:57:14;6.37;;;2.35;;
63653;SDS011;49809;47.418;19.080;2022-08-20T14:00:28;5.45;;;2.40;;
63653;SDS011;49809;47.418;19.080;2022-08-20T14:03:54;3.80;;;2.20;;
63653;SDS011;49809;47.418;19.080;2022-08-20T14:10:28;7.18;;;2.00;;
63653;SDS011;49809;47.418;19.080;2022-08-20T14:13:35;4.05;;;2.03;;
63653;SDS011;49809;47.418;19.080;2022-08-20T14:16:42;3.00;;;2.05;;
63653;SDS011;49809;47.418;19.080;2022-08-20T14:19:49;5.82;;;1.90;;
63653;SDS011;49809;47.418;19.080;2022-08-20T14:22:53;5.82;;;2.35;;
63653;SDS011;49809;47.418;19.080;2022-08-20T14:26:16;3.20;;;1.90;;
63653;SDS011;49809;47.418;19.080;2022-08-20T14:29:27;4.32;;;1.70;;
63653;SDS011;49809;47.418;19.080;2022-08-20T14:33:09;3.10;;;1.70;;
63653;SDS011;49809;47.418;19.080;2022-08-20T14:36:34;3.30;;;1.85;;
63653;SDS011;49809;47.418;19.080;2022-08-20T14:39:57;3.95;;;1.67;;
63653;SDS011;49809;47.418;19.080;2022-08-20T14:43:46;2.15;;;1.70;;
63653;SDS011;49809;47.418;19.080;2022-08-20T14:47:34;3.83;;;1.62;;
63653;SDS011;49809;47.418;19.080;2022-08-20T14:50:42;3.80;;;1.80;;
63653;SDS011;49809;47.418;19.080;2022-08-20T14:53:50;5.05;;;1.95;;
63653;SDS011;49809;47.418;19.080;2022-08-20T14:57:18;6.65;;;1.77;;
63653;SDS011;49809;47.418;19.080;2022-08-20T15:00:49;3.87;;;1.75;;
63653;SDS011;49809;47.418;19.080;2022-08-20T15:04:12;3.58;;;1.73;;
63653;SDS011;49809;47.418;19.080;2022-08-20T15:07:45;3.78;;;1.80;;
63653;SDS011;49809;47.418;19.080;2022-08-20T15:11:07;2.25;;;1.70;;
63653;SDS011;49809;47.418;19.080;2022-08-20T15:14:30;4.82;;;2.10;;
63653;SDS011;49809;47.418;19.080;2022-08-20T15:18:15;5.18;;;2.37;;
63653;SDS011;49809;47.418;19.080;2022-08-20T15:21:42;4.22;;;1.92;;
63653;SDS011;49809;47.418;19.080;2022-08-20T15:25:09;4.12;;;1.98;;
63653;SDS011;49809;47.418;19.080;2022-08-20T15:28:57;4.82;;;2.20;;
63653;SDS011;49809;47.418;19.080;2022-08-20T15:32:43;4.72;;;2.20;;
63653;SDS011;49809;47.418;19.080;2022-08-20T15:36:18;2.95;;;1.98;;
63653;SDS011;49809;47.418;19.080;2022-08-20T15:40:02;3.95;;;2.08;;
63653;SDS011;49809;47.418;19.080;2022-08-20T15:43:52;4.22;;;2.10;;
63653;SDS011;49809;47.418;19.080;2022-08-20T15:54:25;3.65;;;2.10;;
63653;SDS011;49809;47.418;19.080;2022-08-20T15:57:51;5.72;;;2.30;;
63653;SDS011;49809;47.418;19.080;2022-08-20T16:09:44;3.67;;;1.90;;
63653;SDS011;49809;47.418;19.080;2022-08-20T16:13:08;2.70;;;1.80;;
63653;SDS011;49809;47.418;19.080;2022-08-20T16:16:34;2.10;;;1.60;;
63653;SDS011;49809;47.418;19.080;2022-08-20T16:20:32;4.65;;;1.95;;
63653;SDS011;49809;47.418;19.080;2022-08-20T16:24:23;3.22;;;1.80;;
63653;SDS011;49809;47.418;19.080;2022-08-20T16:31:04;3.58;;;1.70;;
63653;SDS011;49809;47.418;19.080;2022-08-20T16:38:57;2.78;;;1.80;;
63653;SDS011;49809;47.418;19.080;2022-08-20T16:42:46;3.90;;;1.73;;
63653;SDS011;49809;47.418;19.080;2022-08-20T16:46:41;4.60;;;2.00;;
63653;SDS011;49809;47.418;19.080;2022-08-20T16:50:16;5.37;;;2.22;;
63653;SDS011;49809;47.418;19.080;2022-08-20T16:53:26;6.25;;;2.17;;
63653;SDS011;49809;47.418;19.080;2022-08-20T16:57:02;2.95;;;1.95;;
63653;SDS011;49809;47.418;19.080;2022-08-20T17:00:29;5.15;;;2.00;;
63653;SDS011;49809;47.418;19.080;2022-08-20T17:04:18;4.05;;;1.75;;
63653;SDS011;49809;47.418;19.080;2022-08-20T17:07:46;5.22;;;2.20;;
63653;SDS011;49809;47.418;19.080;2022-08-20T17:11:27;2.80;;;2.37;;
63653;SDS011;49809;47.418;19.080;2022-08-20T17:15:00;5.93;;;2.05;;
63653;SDS011;49809;47.418;19.080;2022-08-20T17:22:10;4.80;;;2.20;;
63653;SDS011;49809;47.418;19.080;2022-08-20T17:26:02;3.70;;;1.90;;
63653;SDS011;49809;47.418;19.080;2022-08-20T17:29:31;5.87;;;1.90;;
63653;SDS011;49809;47.418;19.080;2022-08-20T17:36:55;3.75;;;2.42;;
63653;SDS011;49809;47.418;19.080;2022-08-20T17:40:32;2.87;;;2.10;;
63653;SDS011;49809;47.418;19.080;2022-08-20T17:43:56;3.60;;;2.12;;
63653;SDS011;49809;47.418;19.080;2022-08-20T17:47:27;7.18;;;2.85;;
63653;SDS011;49809;47.418;19.080;2022-08-20T17:50:40;5.25;;;2.80;;
63653;SDS011;49809;47.418;19.080;2022-08-20T17:58:05;7.50;;;3.25;;
63653;SDS011;49809;47.418;19.080;2022-08-20T18:01:55;4.87;;;2.50;;
63653;SDS011;49809;47.418;19.080;2022-08-20T18:05:41;4.05;;;2.42;;
63653;SDS011;49809;47.418;19.080;2022-08-20T18:08:54;6.80;;;2.53;;
63653;SDS011;49809;47.418;19.080;2022-08-20T18:12:26;6.97;;;3.22;;
63653;SDS011;49809;47.418;19.080;2022-08-20T18:16:22;6.85;;;3.60;;
63653;SDS011;49809;47.418;19.080;2022-08-20T18:23:24;4.82;;;2.80;;
63653;SDS011;49809;47.418;19.080;2022-08-20T18:27:16;5.55;;;2.62;;
63653;SDS011;49809;47.418;19.080;2022-08-20T18:30:26;9.02;;;3.15;;
63653;SDS011;49809;47.418;19.080;2022-08-20T18:34:12;6.57;;;2.87;;
63653;SDS011;49809;47.418;19.080;2022-08-20T18:42:01;4.95;;;2.75;;
63653;SDS011;49809;47.418;19.080;2022-08-20T18:45:43;4.87;;;3.10;;
63653;SDS011;49809;47.418;19.080;2022-08-20T18:49:10;4.70;;;2.83;;
63653;SDS011;49809;47.418;19.080;2022-08-20T18:57:05;7.25;;;2.85;;
63653;SDS011;49809;47.418;19.080;2022-08-20T19:01:02;6.68;;;3.05;;
63653;SDS011;49809;47.418;19.080;2022-08-20T19:04:34;4.93;;;3.10;;
63653;SDS011;49809;47.418;19.080;2022-08-20T19:08:20;4.07;;;2.72;;
63653;SDS011;49809;47.418;19.080;2022-08-20T19:16:03;5.22;;;3.00;;
63653;SDS011;49809;47.418;19.080;2022-08-20T19:20:04;4.60;;;2.83;;
63653;SDS011;49809;47.418;19.080;2022-08-20T19:24:04;5.25;;;2.50;;
63653;SDS011;49809;47.418;19.080;2022-08-20T19:27:40;4.25;;;2.80;;
63653;SDS011;49809;47.418;19.080;2022-08-20T19:31:25;4.25;;;2.58;;
63653;SDS011;49809;47.418;19.080;2022-08-20T19:34:55;4.40;;;2.60;;
63653;SDS011;49809;47.418;19.080;2022-08-20T19:38:43;6.20;;;2.87;;
63653;SDS011;49809;47.418;19.080;2022-08-20T19:42:15;5.53;;;2.60;;
63653;SDS011;49809;47.418;19.080;2022-08-20T19:46:04;3.78;;;2.30;;
63653;SDS011;49809;47.418;19.080;2022-08-20T19:57:21;7.05;;;2.50;;
63653;SDS011;49809;47.418;19.080;2022-08-20T20:00:53;4.28;;;2.70;;
63653;SDS011;49809;47.418;19.080;2022-08-20T20:04:13;6.53;;;2.60;;
63653;SDS011;49809;47.418;19.080;2022-08-20T20:07:47;4.05;;;2.47;;
63653;SDS011;49809;47.418;19.080;2022-08-20T20:11:16;4.90;;;2.87;;
63653;SDS011;49809;47.418;19.080;2022-08-20T20:15:00;6.00;;;2.90;;
63653;SDS011;49809;47.418;19.080;2022-08-20T20:18:09;5.22;;;3.08;;
63653;SDS011;49809;47.418;19.080;2022-08-20T20:21:41;5.00;;;2.95;;
63653;SDS011;49809;47.418;19.080;2022-08-20T20:29:05;4.97;;;2.78;;
63653;SDS011;49809;47.418;19.080;2022-08-20T20:33:13;4.12;;;2.40;;
63653;SDS011;49809;47.418;19.080;2022-08-20T20:37:23;4.47;;;2.20;;
63653;SDS011;49809;47.418;19.080;2022-08-20T20:41:26;3.90;;;2.30;;
63653;SDS011;49809;47.418;19.080;2022-08-20T20:44:56;7.12;;;2.40;;
63653;SDS011;49809;47.418;19.080;2022-08-20T20:48:38;5.87;;;2.60;;
63653;SDS011;49809;47.418;19.080;2022-08-20T20:52:29;4.00;;;2.47;;
63653;SDS011;49809;47.418;19.080;2022-08-20T20:56:40;3.92;;;2.55;;
63653;SDS011;49809;47.418;19.080;2022-08-20T21:00:27;6.78;;;2.65;;
63653;SDS011;49809;47.418;19.080;2022-08-20T21:04:35;4.05;;;2.42;;
63653;SDS011;49809;47.418;19.080;2022-08-20T21:08:19;3.33;;;2.00;;
63653;SDS011;49809;47.418;19.080;2022-08-20T21:12:23;8.10;;;2.90;;
63653;SDS011;49809;47.418;19.080;2022-08-20T21:16:09;4.75;;;2.62;;
63653;SDS011;49809;47.418;19.080;2022-08-20T21:20:24;3.20;;;2.20;;
63653;SDS011;49809;47.418;19.080;2022-08-20T21:24:07;4.18;;;2.55;;
63653;SDS011;49809;47.418;19.080;2022-08-20T21:27:37;5.93;;;2.85;;
63653;SDS011;49809;47.418;19.080;2022-08-20T21:31:29;4.93;;;2.80;;
63653;SDS011;49809;47.418;19.080;2022-08-20T21:35:16;3.60;;;2.70;;